createdAt,value
2022-10-06T00:01:09.793Z,4.72
2022-10-06T00:06:43.913Z,3.50
2022-10-06T00:09:31.087Z,5.30
2022-10-06T00:12:18.271Z,5.72
2022-10-06T00:15:05.722Z,4.32
2022-10-06T00:17:52.805Z,5.72
2022-10-06T00:20:39.869Z,4.32
2022-10-06T00:23:28.525Z,9.70
2022-10-06T00:26:16.879Z,8.50
2022-10-06T00:29:05.072Z,6.38
2022-10-06T00:31:52.316Z,7.10
2022-10-06T00:34:39.442Z,6.07
2022-10-06T00:37:28.214Z,4.18
2022-10-06T00:40:15.939Z,4.18
2022-10-06T00:43:05.989Z,4.70
2022-10-06T00:45:53.221Z,6.03
2022-10-06T00:48:40.925Z,9.32
2022-10-06T00:51:30.462Z,4.25
2022-10-06T00:54:18.463Z,4.50
2022-10-06T00:57:06.719Z,6.68
2022-10-06T00:59:53.849Z,4.55
2022-10-06T01:02:49.204Z,8.75
2022-10-06T01:05:42.169Z,7.93
2022-10-06T01:08:31.086Z,4.63
2022-10-06T01:11:18.691Z,4.28
2022-10-06T01:14:05.946Z,3.85
2022-10-06T01:17:16.894Z,4.55
2022-10-06T01:20:10.470Z,5.60
2022-10-06T01:23:05.181Z,6.55
2022-10-06T01:25:53.245Z,6.38
2022-10-06T01:28:40.800Z,4.90
2022-10-06T01:31:28.462Z,5.70
2022-10-06T01:34:15.758Z,7.80
2022-10-06T01:37:03.684Z,3.53
2022-10-06T01:39:50.979Z,3.97
2022-10-06T01:42:38.511Z,10.60
2022-10-06T01:45:25.734Z,8.15
2022-10-06T01:48:13.021Z,5.35
2022-10-06T01:51:00.546Z,5.38
2022-10-06T01:53:47.633Z,6.70
2022-10-06T01:56:35.164Z,4.95
2022-10-06T02:06:19.452Z,4.43
2022-10-06T02:09:06.787Z,5.20
2022-10-06T02:11:54.030Z,6.93
2022-10-06T02:14:41.435Z,5.88
2022-10-06T02:17:29.801Z,6.82
2022-10-06T02:20:16.995Z,5.78
2022-10-06T02:23:04.237Z,4.43
2022-10-06T02:25:58.889Z,4.85
2022-10-06T02:28:46.901Z,6.32
2022-10-06T02:31:38.212Z,5.03
2022-10-06T02:34:26.955Z,8.15
2022-10-06T02:37:15.807Z,5.70
2022-10-06T02:40:03.143Z,5.05
2022-10-06T02:42:51.741Z,8.30
2022-10-06T02:45:43.133Z,5.20
2022-10-06T02:48:31.145Z,4.45
2022-10-06T02:51:21.026Z,7.30
2022-10-06T02:54:08.754Z,9.50
2022-10-06T02:56:55.851Z,5.57
2022-10-06T02:59:43.108Z,5.78
2022-10-06T03:02:31.040Z,5.13
2022-10-06T03:05:18.657Z,9.60
2022-10-06T03:08:05.996Z,7.50
2022-10-06T03:10:59.627Z,5.15
2022-10-06T03:13:47.625Z,9.35
2022-10-06T03:16:40.231Z,3.50
2022-10-06T03:19:32.737Z,6.68
2022-10-06T03:22:20.481Z,8.95
2022-10-06T03:25:13.927Z,5.50
2022-10-06T03:28:01.361Z,7.07
2022-10-06T03:30:48.475Z,5.97
2022-10-06T03:33:36.962Z,5.50
2022-10-06T03:36:27.981Z,5.07
2022-10-06T03:39:15.180Z,5.28
2022-10-06T03:42:02.300Z,12.18
2022-10-06T03:44:49.526Z,7.05
2022-10-06T03:47:37.064Z,9.57
2022-10-06T03:50:24.430Z,7.82
2022-10-06T03:53:11.519Z,8.18
2022-10-06T03:56:10.982Z,7.90
2022-10-06T03:59:00.405Z,5.97
2022-10-06T04:01:49.156Z,6.30
2022-10-06T04:04:40.866Z,6.13
2022-10-06T04:07:29.930Z,18.35
2022-10-06T04:10:17.028Z,6.00
2022-10-06T04:13:04.593Z,6.00
2022-10-06T04:15:51.822Z,7.45
2022-10-06T04:18:39.626Z,5.47
2022-10-06T04:21:27.990Z,12.25
2022-10-06T04:24:18.374Z,8.20
2022-10-06T04:27:26.342Z,7.47
2022-10-06T04:30:29.274Z,6.90
2022-10-06T04:33:16.547Z,4.93
2022-10-06T04:36:06.201Z,11.98
2022-10-06T04:38:58.476Z,7.07
2022-10-06T04:41:47.707Z,4.70
2022-10-06T04:44:39.924Z,9.38
2022-10-06T04:47:27.282Z,5.88
2022-10-06T04:50:14.571Z,8.05
2022-10-06T04:53:20.362Z,6.65
2022-10-06T04:56:12.252Z,5.00
2022-10-06T04:58:59.801Z,6.47
2022-10-06T05:01:48.962Z,6.88
2022-10-06T05:04:36.275Z,8.38
2022-10-06T05:07:23.430Z,5.32
2022-10-06T05:10:11.196Z,14.60
2022-10-06T05:12:58.314Z,7.05
2022-10-06T05:15:55.709Z,9.00
2022-10-06T05:18:44.287Z,5.35
2022-10-06T05:21:32.746Z,7.68
2022-10-06T05:24:23.865Z,7.25
2022-10-06T05:27:10.984Z,10.77
2022-10-06T05:29:58.465Z,8.98
2022-10-06T05:32:46.943Z,8.02
2022-10-06T05:35:34.171Z,6.22
2022-10-06T05:38:21.968Z,8.77
2022-10-06T05:41:14.837Z,8.52
2022-10-06T05:44:02.430Z,8.07
2022-10-06T05:46:50.911Z,8.43
2022-10-06T05:49:39.215Z,6.95
2022-10-06T05:52:26.566Z,8.70
2022-10-06T05:55:13.992Z,6.82
2022-10-06T05:58:01.564Z,11.55
2022-10-06T06:00:48.609Z,8.00
2022-10-06T06:03:35.780Z,11.60
2022-10-06T06:06:28.373Z,9.07
2022-10-06T06:09:21.204Z,9.70
2022-10-06T06:12:16.157Z,8.23
2022-10-06T06:15:27.807Z,8.93
2022-10-06T06:18:20.132Z,8.82
2022-10-06T06:21:09.303Z,8.43
2022-10-06T06:23:57.427Z,10.45
2022-10-06T06:26:44.512Z,8.07
2022-10-06T06:29:32.859Z,9.07
2022-10-06T06:32:20.081Z,11.35
2022-10-06T06:35:07.745Z,6.93
2022-10-06T06:37:55.248Z,8.00
2022-10-06T06:40:42.643Z,11.00
2022-10-06T06:43:32.199Z,9.88
2022-10-06T06:46:46.818Z,11.75
2022-10-06T06:49:38.727Z,13.10
2022-10-06T06:52:28.499Z,16.13
2022-10-06T06:55:16.781Z,23.48
2022-10-06T06:58:04.054Z,15.23
2022-10-06T07:00:51.618Z,14.80
2022-10-06T07:03:57.066Z,11.25
2022-10-06T07:06:56.962Z,14.05
2022-10-06T07:09:45.133Z,10.20
2022-10-06T07:12:34.160Z,12.32
2022-10-06T07:15:39.827Z,11.07
2022-10-06T07:18:46.045Z,10.98
2022-10-06T07:21:51.721Z,8.07
2022-10-06T07:24:58.091Z,10.13
2022-10-06T07:27:50.900Z,5.85
2022-10-06T07:30:41.804Z,7.50
2022-10-06T07:33:32.773Z,6.95
2022-10-06T07:36:23.312Z,6.93
2022-10-06T07:39:10.440Z,5.82
2022-10-06T07:41:58.638Z,11.82
2022-10-06T07:45:06.724Z,8.65
2022-10-06T07:47:59.561Z,5.03
2022-10-06T07:50:49.233Z,7.57
2022-10-06T07:53:39.783Z,6.80
2022-10-06T07:56:38.895Z,6.13
2022-10-06T07:59:26.779Z,8.23
2022-10-06T08:02:14.593Z,10.90
2022-10-06T08:05:01.817Z,5.10
2022-10-06T08:07:48.885Z,8.73
2022-10-06T08:10:36.134Z,5.95
2022-10-06T08:13:24.310Z,4.05
2022-10-06T08:16:14.728Z,5.45
2022-10-06T08:19:02.142Z,4.78
2022-10-06T08:21:49.700Z,5.43
2022-10-06T08:25:00.937Z,5.80
2022-10-06T08:27:44.222Z,4.38
2022-10-06T08:30:31.347Z,3.30
2022-10-06T08:33:21.308Z,4.07
2022-10-06T08:36:19.628Z,3.13
2022-10-06T08:39:07.239Z,5.95
2022-10-06T08:41:55.851Z,4.40
2022-10-06T08:44:50.505Z,9.32
2022-10-06T08:47:37.865Z,5.50
2022-10-06T08:50:29.078Z,9.95
2022-10-06T08:53:22.099Z,4.85
2022-10-06T08:56:21.384Z,6.05
2022-10-06T08:59:09.759Z,8.10
2022-10-06T09:01:57.033Z,5.68
2022-10-06T09:04:44.183Z,5.63
2022-10-06T09:07:52.369Z,5.75
2022-10-06T09:10:42.375Z,5.95
2022-10-06T09:13:37.107Z,5.53
2022-10-06T09:16:32.126Z,9.20
2022-10-06T09:19:24.671Z,5.53
2022-10-06T09:22:20.278Z,4.95
2022-10-06T09:25:28.133Z,4.13
2022-10-06T09:28:16.790Z,6.28
2022-10-06T09:31:22.171Z,6.28
2022-10-06T09:34:28.059Z,6.13
2022-10-06T09:37:15.507Z,5.57
2022-10-06T09:40:03.319Z,6.28
2022-10-06T09:42:50.504Z,7.50
2022-10-06T09:45:37.829Z,5.35
2022-10-06T09:48:26.846Z,8.40
2022-10-06T09:51:17.093Z,7.90
2022-10-06T09:54:10.981Z,7.55
2022-10-06T09:57:00.054Z,5.72
2022-10-06T09:59:47.840Z,6.03
2022-10-06T10:02:37.285Z,4.45
2022-10-06T10:05:25.004Z,7.35
2022-10-06T10:08:22.040Z,5.95
2022-10-06T10:11:33.216Z,5.85
2022-10-06T10:17:35.676Z,9.00
2022-10-06T10:20:28.117Z,6.68
2022-10-06T10:23:31.622Z,7.80
2022-10-06T10:26:53.633Z,9.15
2022-10-06T10:29:49.987Z,6.70
2022-10-06T10:32:47.708Z,4.85
2022-10-06T10:35:45.765Z,4.15
2022-10-06T10:38:40.884Z,7.32
2022-10-06T10:41:37.731Z,6.53
2022-10-06T10:45:00.078Z,7.50
2022-10-06T10:47:49.249Z,7.85
2022-10-06T10:50:50.382Z,5.30
2022-10-06T10:53:42.601Z,7.72
2022-10-06T10:56:32.762Z,6.47
2022-10-06T10:59:20.773Z,15.32
2022-10-06T11:02:20.558Z,4.72
2022-10-06T11:05:33.699Z,7.40
2022-10-06T11:08:36.315Z,4.97
2022-10-06T11:11:51.903Z,5.68
2022-10-06T11:15:01.545Z,5.75
2022-10-06T11:17:50.788Z,7.78
2022-10-06T11:20:57.813Z,6.60
2022-10-06T11:24:23.298Z,5.07
2022-10-06T11:27:25.639Z,7.85
2022-10-06T11:30:26.228Z,8.68
2022-10-06T11:33:13.616Z,13.90
2022-10-06T11:36:02.293Z,6.45
2022-10-06T11:39:12.141Z,9.00
2022-10-06T11:42:15.948Z,3.63
2022-10-06T11:45:14.798Z,6.45
2022-10-06T11:48:10.385Z,7.40
2022-10-06T11:51:24.566Z,4.70
2022-10-06T11:54:50.133Z,4.25
2022-10-06T11:58:23.508Z,4.18
2022-10-06T12:01:53.333Z,10.45
2022-10-06T12:04:40.494Z,9.82
2022-10-06T12:07:56.129Z,8.52
2022-10-06T12:10:50.471Z,4.30
2022-10-06T12:15:01.971Z,6.15
2022-10-06T12:17:33.719Z,9.77
2022-10-06T12:20:33.125Z,7.70
2022-10-06T12:23:36.235Z,5.65
2022-10-06T12:26:37.836Z,5.28
2022-10-06T12:29:34.548Z,8.73
2022-10-06T12:32:28.501Z,6.55
2022-10-06T12:35:18.737Z,3.38
2022-10-06T12:38:26.820Z,7.85
2022-10-06T12:41:14.243Z,5.28
2022-10-06T12:44:03.850Z,6.15
2022-10-06T12:46:51.471Z,6.00
2022-10-06T12:49:59.830Z,5.47
2022-10-06T12:53:05.825Z,7.35
2022-10-06T12:55:57.373Z,5.72
2022-10-06T12:58:44.484Z,5.03
2022-10-06T13:01:35.075Z,4.40
2022-10-06T13:04:43.750Z,10.00
2022-10-06T13:07:33.657Z,4.63
2022-10-06T13:10:22.098Z,6.65
2022-10-06T13:13:23.358Z,4.05
2022-10-06T13:16:11.053Z,1.98
2022-10-06T13:18:59.712Z,5.20
2022-10-06T13:21:47.111Z,5.72
2022-10-06T13:24:34.312Z,6.32
2022-10-06T13:27:21.438Z,6.35
2022-10-06T13:30:26.721Z,5.65
2022-10-06T13:33:16.194Z,5.57
2022-10-06T13:36:03.720Z,9.00
2022-10-06T13:38:55.613Z,8.50
2022-10-06T13:41:49.815Z,4.65
2022-10-06T13:44:42.816Z,5.40
2022-10-06T13:47:30.403Z,5.00
2022-10-06T13:50:19.949Z,5.50
2022-10-06T13:53:23.630Z,8.05
2022-10-06T13:59:28.624Z,6.13
2022-10-06T14:02:18.861Z,4.57
2022-10-06T14:05:21.641Z,6.43
2022-10-06T14:08:11.813Z,5.90
2022-10-06T14:11:07.961Z,6.28
2022-10-06T14:14:00.082Z,5.57
2022-10-06T14:16:52.763Z,4.10
2022-10-06T14:19:41.172Z,6.20
2022-10-06T14:22:38.235Z,3.35
2022-10-06T14:25:25.434Z,4.05
2022-10-06T14:28:12.650Z,5.68
2022-10-06T14:31:00.316Z,6.63
2022-10-06T14:33:49.181Z,3.17
2022-10-06T14:36:37.265Z,7.40
2022-10-06T14:39:24.408Z,4.43
2022-10-06T14:42:13.124Z,7.30
2022-10-06T14:45:00.601Z,6.20
2022-10-06T14:47:48.285Z,4.72
2022-10-06T14:50:35.410Z,3.13
2022-10-06T14:53:22.540Z,4.18
2022-10-06T14:56:13.918Z,2.75
2022-10-06T14:59:04.928Z,4.05
2022-10-06T15:04:39.058Z,5.38
2022-10-06T15:07:44.674Z,2.65
2022-10-06T15:10:31.796Z,4.13
2022-10-06T15:13:18.905Z,5.75
2022-10-06T15:16:06.969Z,7.68
2022-10-06T15:18:54.273Z,7.60
2022-10-06T15:21:45.436Z,6.25
2022-10-06T15:24:32.704Z,5.65
2022-10-06T15:27:38.450Z,6.28
2022-10-06T15:30:25.515Z,5.40
2022-10-06T15:33:12.605Z,4.60
2022-10-06T15:36:19.947Z,7.18
2022-10-06T15:39:09.377Z,6.35
2022-10-06T15:41:57.038Z,5.43
2022-10-06T15:44:44.182Z,6.07
2022-10-06T15:47:31.384Z,4.70
2022-10-06T15:50:19.181Z,8.85
2022-10-06T15:53:06.479Z,4.47
2022-10-06T15:55:58.912Z,5.95
2022-10-06T15:58:46.363Z,4.68
2022-10-06T16:01:34.815Z,7.55
2022-10-06T16:04:45.005Z,4.63
2022-10-06T16:07:32.663Z,5.03
2022-10-06T16:10:19.788Z,7.38
2022-10-06T16:13:06.884Z,5.70
2022-10-06T16:15:55.211Z,10.13
2022-10-06T16:18:42.349Z,6.95
2022-10-06T16:21:31.009Z,4.93
2022-10-06T16:24:19.483Z,5.78
2022-10-06T16:27:11.163Z,5.18
2022-10-06T16:29:58.414Z,6.47
2022-10-06T16:32:45.567Z,3.42
2022-10-06T16:35:32.665Z,7.35
2022-10-06T16:38:19.729Z,5.93
2022-10-06T16:41:06.921Z,6.10
2022-10-06T16:43:54.285Z,4.47
2022-10-06T16:46:41.772Z,6.75
2022-10-06T16:49:28.988Z,5.15
2022-10-06T16:52:16.179Z,4.75
2022-10-06T16:55:03.519Z,6.97
2022-10-06T16:57:50.951Z,6.85
2022-10-06T17:00:38.071Z,7.07
2022-10-06T17:03:25.159Z,5.75
2022-10-06T17:06:14.985Z,7.18
2022-10-06T17:09:02.284Z,7.55
2022-10-06T17:11:52.597Z,6.57
2022-10-06T17:14:39.696Z,8.85
2022-10-06T17:17:26.823Z,8.40
2022-10-06T17:20:15.969Z,8.30
2022-10-06T17:23:03.036Z,7.82
2022-10-06T17:26:07.305Z,8.43
2022-10-06T17:28:57.059Z,7.85
2022-10-06T17:31:45.244Z,9.23
2022-10-06T17:34:34.229Z,13.05
2022-10-06T17:37:21.820Z,6.85
2022-10-06T17:40:09.149Z,7.63
2022-10-06T17:42:57.480Z,9.75
2022-10-06T17:45:44.735Z,9.43
2022-10-06T17:48:32.245Z,8.30
2022-10-06T17:51:23.206Z,6.97
2022-10-06T17:54:16.118Z,8.80
2022-10-06T17:57:03.286Z,7.07
2022-10-06T17:59:50.362Z,10.52
2022-10-06T18:02:40.514Z,8.40
2022-10-06T18:05:32.859Z,14.25
2022-10-06T18:08:23.387Z,6.88
2022-10-06T18:11:31.627Z,6.80
2022-10-06T18:14:20.377Z,8.63
2022-10-06T18:17:07.507Z,6.68
2022-10-06T18:19:55.253Z,15.70
2022-10-06T18:22:42.608Z,10.63
2022-10-06T18:25:30.767Z,9.13
2022-10-06T18:28:17.958Z,6.88
2022-10-06T18:31:06.307Z,7.53
2022-10-06T18:37:00.823Z,13.30
2022-10-06T18:39:47.886Z,8.57
2022-10-06T18:42:35.030Z,7.65
2022-10-06T18:45:40.920Z,10.05
2022-10-06T18:48:46.664Z,7.78
2022-10-06T18:51:36.109Z,13.20
2022-10-06T18:54:30.024Z,10.68
2022-10-06T18:57:17.143Z,12.32
2022-10-06T19:00:04.737Z,16.73
2022-10-06T19:02:52.226Z,14.13
2022-10-06T19:05:39.285Z,17.02
2022-10-06T19:08:26.851Z,15.73
2022-10-06T19:11:32.623Z,18.50
2022-10-06T19:14:27.251Z,16.75
2022-10-06T19:17:15.126Z,17.40
2022-10-06T19:20:02.278Z,13.82
2022-10-06T19:22:49.441Z,17.63
2022-10-06T19:25:36.507Z,24.77
2022-10-06T19:28:23.621Z,12.85
2022-10-06T19:31:13.108Z,24.85
2022-10-06T19:34:02.665Z,21.27
2022-10-06T19:36:53.239Z,11.95
2022-10-06T19:39:43.998Z,11.18
2022-10-06T19:42:49.545Z,18.90
2022-10-06T19:45:36.907Z,16.58
2022-10-06T19:48:23.938Z,14.57
2022-10-06T19:51:13.952Z,12.65
2022-10-06T19:54:02.659Z,11.10
2022-10-06T19:56:49.866Z,10.13
2022-10-06T19:59:37.928Z,11.00
2022-10-06T20:02:25.073Z,13.93
2022-10-06T20:05:14.311Z,12.30
2022-10-06T20:08:01.346Z,12.18
2022-10-06T20:10:48.454Z,12.80
2022-10-06T20:13:38.283Z,13.48
2022-10-06T20:16:25.770Z,14.77
2022-10-06T20:19:13.921Z,15.30
2022-10-06T20:22:01.019Z,17.27
2022-10-06T20:24:48.232Z,16.00
2022-10-06T20:27:35.380Z,18.02
2022-10-06T20:30:22.481Z,22.92
2022-10-06T20:33:11.281Z,26.83
2022-10-06T20:36:02.742Z,22.48
2022-10-06T20:39:08.407Z,33.38
2022-10-06T20:41:56.165Z,23.13
2022-10-06T20:44:44.154Z,28.02
2022-10-06T20:47:31.640Z,19.63
2022-10-06T20:50:18.867Z,16.02
2022-10-06T20:53:06.348Z,16.13
2022-10-06T20:55:53.559Z,19.52
2022-10-06T20:58:41.299Z,22.83
2022-10-06T21:01:28.429Z,16.40
2022-10-06T21:04:15.987Z,18.17
2022-10-06T21:07:05.933Z,21.85
2022-10-06T21:09:53.203Z,18.45
2022-10-06T21:12:40.419Z,19.10
2022-10-06T21:15:27.503Z,19.13
2022-10-06T21:18:14.575Z,18.02
2022-10-06T21:21:05.215Z,18.08
2022-10-06T21:23:52.728Z,15.85
2022-10-06T21:26:42.589Z,18.17
2022-10-06T21:29:29.846Z,20.08
2022-10-06T21:32:16.956Z,19.27
2022-10-06T21:35:04.349Z,20.00
2022-10-06T21:37:51.579Z,23.10
2022-10-06T21:40:38.880Z,21.30
2022-10-06T21:43:25.994Z,16.35
2022-10-06T21:46:28.105Z,24.98
2022-10-06T21:49:20.963Z,17.42
2022-10-06T21:52:08.940Z,16.63
2022-10-06T21:54:56.099Z,16.42
2022-10-06T21:57:43.417Z,18.35
2022-10-06T22:00:30.743Z,21.33
2022-10-06T22:03:17.830Z,22.40
2022-10-06T22:06:09.093Z,21.92
2022-10-06T22:08:57.492Z,17.52
2022-10-06T22:11:45.109Z,19.88
2022-10-06T22:14:32.152Z,16.85
2022-10-06T22:17:19.159Z,12.50
2022-10-06T22:20:07.232Z,20.98
2022-10-06T22:22:54.272Z,15.38
2022-10-06T22:25:41.297Z,17.33
2022-10-06T22:28:28.577Z,16.15
2022-10-06T22:31:17.797Z,17.30
2022-10-06T22:34:07.831Z,20.40
2022-10-06T22:36:54.962Z,23.00
2022-10-06T22:39:41.989Z,18.35
2022-10-06T22:42:29.012Z,15.90
2022-10-06T22:45:16.256Z,14.80
2022-10-06T22:48:03.551Z,12.43
2022-10-06T22:50:51.589Z,16.27
2022-10-06T22:53:38.659Z,17.02
2022-10-06T22:56:31.359Z,17.25
2022-10-06T22:59:18.434Z,14.60
2022-10-06T23:02:05.863Z,14.63
2022-10-06T23:04:52.886Z,15.23
2022-10-06T23:07:39.945Z,12.93
2022-10-06T23:10:29.599Z,13.27
2022-10-06T23:13:17.123Z,13.70
2022-10-06T23:16:09.925Z,12.60
2022-10-06T23:18:57.712Z,15.02
2022-10-06T23:21:44.803Z,16.05
2022-10-06T23:24:31.821Z,11.02
2022-10-06T23:27:18.922Z,12.15
2022-10-06T23:30:07.019Z,10.82
2022-10-06T23:32:54.067Z,10.52
2022-10-06T23:35:41.177Z,8.10
2022-10-06T23:38:28.848Z,8.25
2022-10-06T23:41:16.342Z,8.15
2022-10-06T23:44:03.359Z,9.88
2022-10-06T23:46:50.430Z,9.45
2022-10-06T23:49:37.476Z,10.70
2022-10-06T23:52:24.565Z,9.40
2022-10-06T23:55:11.659Z,8.20
2022-10-06T23:57:58.673Z,9.13
